sensor_id;sensor_type;location;lat;lon;timestamp;pressure;altitude;pressure_sealevel;temperature;humidity
75938;BME280;64615;32.062;34.834;2022-11-20T00:10:47;101662.72;;;24.10;42.28
75938;BME280;64615;32.062;34.834;2022-11-20T00:13:13;101670.28;;;24.07;42.40
75938;BME280;64615;32.062;34.834;2022-11-20T00:15:39;101665.66;;;24.08;42.34
75938;BME280;64615;32.062;34.834;2022-11-20T00:18:04;101670.28;;;24.07;42.53
75938;BME280;64615;32.062;34.834;2022-11-20T00:20:30;101669.47;;;24.07;42.27
75938;BME280;64615;32.062;34.834;2022-11-20T00:22:55;101672.19;;;24.07;42.52
75938;BME280;64615;32.062;34.834;2022-11-20T00:25:21;101670.28;;;24.07;42.40
75938;BME280;64615;32.062;34.834;2022-11-20T00:27:47;101660.72;;;24.05;42.20
75938;BME280;64615;32.062;34.834;2022-11-20T00:30:12;101671.84;;;24.03;42.24
75938;BME280;64615;32.062;34.834;2022-11-20T00:32:38;101665.34;;;24.04;42.46
75938;BME280;64615;32.062;34.834;2022-11-20T00:35:04;101665.34;;;24.04;42.16
75938;BME280;64615;32.062;34.834;2022-11-20T00:37:30;101667.22;;;24.04;42.46
75938;BME280;64615;32.062;34.834;2022-11-20T00:39:56;101668.06;;;24.04;42.16
75938;BME280;64615;32.062;34.834;2022-11-20T00:42:21;101677.88;;;24.05;42.33
75938;BME280;64615;32.062;34.834;2022-11-20T00:44:47;101679.78;;;24.05;42.32
75938;BME280;64615;32.062;34.834;2022-11-20T00:47:13;101684.97;;;24.06;42.15
75938;BME280;64615;32.062;34.834;2022-11-20T00:49:39;101688.53;;;24.07;42.08
75938;BME280;64615;32.062;34.834;2022-11-20T00:52:04;101681.06;;;24.02;42.03
75938;BME280;64615;32.062;34.834;2022-11-20T00:54:30;101681.91;;;24.03;42.12
75938;BME280;64615;32.062;34.834;2022-11-20T00:56:55;101680.84;;;24.04;42.38
75938;BME280;64615;32.062;34.834;2022-11-20T01:40:16;101661.94;;;23.97;42.94
75938;BME280;64615;32.062;34.834;2022-11-20T01:42:53;101673.41;;;23.99;42.78
75938;BME280;64615;32.062;34.834;2022-11-20T01:46:05;101674.00;;;24.01;43.04
75938;BME280;64615;32.062;34.834;2022-11-20T01:48:37;101674.00;;;24.01;42.95
75938;BME280;64615;32.062;34.834;2022-11-20T01:51:07;101674.56;;;24.03;42.71
75938;BME280;64615;32.062;34.834;2022-11-20T01:53:38;101669.41;;;24.02;42.82
75938;BME280;64615;32.062;34.834;2022-11-20T01:56:08;101674.31;;;24.05;42.88
75938;BME280;64615;32.062;34.834;2022-11-20T01:58:37;101675.16;;;24.05;42.81
75938;BME280;64615;32.062;34.834;2022-11-20T02:01:04;101677.78;;;24.00;42.97
75938;BME280;64615;32.062;34.834;2022-11-20T02:03:30;101677.78;;;24.00;43.07
75938;BME280;64615;32.062;34.834;2022-11-20T02:39:20;101655.94;;;23.95;42.24
75938;BME280;64615;32.062;34.834;2022-11-20T02:41:48;101658.66;;;23.95;42.11
75938;BME280;64615;32.062;34.834;2022-11-20T02:44:14;101656.75;;;23.96;42.05
75938;BME280;64615;32.062;34.834;2022-11-20T02:46:40;101665.75;;;23.96;42.23
75938;BME280;64615;32.062;34.834;2022-11-20T02:49:05;101661.94;;;23.97;42.09
75938;BME280;64615;32.062;34.834;2022-11-20T02:51:32;101675.53;;;23.97;42.23
75938;BME280;64615;32.062;34.834;2022-11-20T02:53:57;101674.97;;;23.95;42.34
75938;BME280;64615;32.062;34.834;2022-11-20T02:56:24;101668.47;;;23.96;42.69
75938;BME280;64615;32.062;34.834;2022-11-20T02:58:49;101676.88;;;23.95;42.45
75938;BME280;64615;32.062;34.834;2022-11-20T03:01:15;101676.63;;;23.96;42.66
75938;BME280;64615;32.062;34.834;2022-11-20T03:03:41;101677.47;;;23.97;43.07
75938;BME280;64615;32.062;34.834;2022-11-20T03:06:07;101670.69;;;23.99;42.80
75938;BME280;64615;32.062;34.834;2022-11-20T03:08:33;101672.81;;;23.97;42.70
75938;BME280;64615;32.062;34.834;2022-11-20T03:11:04;101668.47;;;23.96;42.30
75938;BME280;64615;32.062;34.834;2022-11-20T03:13:30;101666.81;;;23.95;42.29
75938;BME280;64615;32.062;34.834;2022-11-20T03:15:55;101669.31;;;23.97;41.50
75938;BME280;64615;32.062;34.834;2022-11-20T03:18:21;101669.03;;;23.98;42.09
75938;BME280;64615;32.062;34.834;2022-11-20T03:20:47;101674.75;;;23.97;41.55
75938;BME280;64615;32.062;34.834;2022-11-20T03:23:12;101681.56;;;23.99;40.91
75938;BME280;64615;32.062;34.834;2022-11-20T03:25:38;101678.63;;;24.01;41.12
75938;BME280;64615;32.062;34.834;2022-11-20T03:28:04;101685.94;;;24.00;40.50
75938;BME280;64615;32.062;34.834;2022-11-20T03:30:29;101685.34;;;23.98;41.23
75938;BME280;64615;32.062;34.834;2022-11-20T03:32:55;101679.91;;;23.98;41.37
75938;BME280;64615;32.062;34.834;2022-11-20T03:35:21;101679.53;;;24.06;40.88
75938;BME280;64615;32.062;34.834;2022-11-20T03:37:46;101694.19;;;24.05;40.27
75938;BME280;64615;32.062;34.834;2022-11-20T04:28:29;101675.44;;;24.21;38.93
75938;BME280;64615;32.062;34.834;2022-11-20T04:31:04;101685.69;;;24.64;38.30
75938;BME280;64615;32.062;34.834;2022-11-20T04:33:30;101687.66;;;24.68;37.70
75938;BME280;64615;32.062;34.834;2022-11-20T04:36:00;101690.63;;;24.50;38.71
75938;BME280;64615;32.062;34.834;2022-11-20T04:38:27;101693.28;;;24.45;37.79
75938;BME280;64615;32.062;34.834;2022-11-20T04:40:56;101697.97;;;24.49;37.99
75938;BME280;64615;32.062;34.834;2022-11-20T04:43:22;101692.19;;;24.46;38.10
75938;BME280;64615;32.062;34.834;2022-11-20T04:45:52;101690.06;;;24.48;37.93
75938;BME280;64615;32.062;34.834;2022-11-20T04:48:18;101692.78;;;24.48;37.27
75938;BME280;64615;32.062;34.834;2022-11-20T04:50:44;101697.97;;;24.49;37.06
75938;BME280;64615;32.062;34.834;2022-11-20T04:53:09;101698.31;;;24.53;36.93
75938;BME280;64615;32.062;34.834;2022-11-20T04:55:35;101695.34;;;24.55;37.28
75938;BME280;64615;32.062;34.834;2022-11-20T05:16:51;101706.00;;;24.89;33.69
75938;BME280;64615;32.062;34.834;2022-11-20T05:19:17;101697.44;;;25.03;33.63
75938;BME280;64615;32.062;34.834;2022-11-20T05:21:42;101702.81;;;25.14;33.09
75938;BME280;64615;32.062;34.834;2022-11-20T05:24:08;101702.22;;;25.12;34.79
75938;BME280;64615;32.062;34.834;2022-11-20T05:26:33;101706.88;;;25.12;34.41
75938;BME280;64615;32.062;34.834;2022-11-20T05:28:59;101705.22;;;25.11;35.27
75938;BME280;64615;32.062;34.834;2022-11-20T05:31:25;101705.75;;;25.13;34.65
75938;BME280;64615;32.062;34.834;2022-11-20T05:33:51;101703.09;;;25.18;35.18
75938;BME280;64615;32.062;34.834;2022-11-20T05:36:17;101708.56;;;25.18;35.14
75938;BME280;64615;32.062;34.834;2022-11-20T05:38:43;101722.53;;;25.21;35.11
75938;BME280;64615;32.062;34.834;2022-11-20T05:41:11;101719.81;;;25.21;34.99
75938;BME280;64615;32.062;34.834;2022-11-20T05:43:39;101728.47;;;25.18;33.73
75938;BME280;64615;32.062;34.834;2022-11-20T05:46:07;101727.59;;;24.79;30.62
75938;BME280;64615;32.062;34.834;2022-11-20T05:48:33;101740.69;;;24.66;30.17
75938;BME280;64615;32.062;34.834;2022-11-20T05:51:00;101739.06;;;24.65;29.83
75938;BME280;64615;32.062;34.834;2022-11-20T05:53:26;101738.72;;;24.61;29.70
75938;BME280;64615;32.062;34.834;2022-11-20T05:55:59;101733.94;;;24.68;29.54
75938;BME280;64615;32.062;34.834;2022-11-20T05:58:24;101726.19;;;24.77;29.64
75938;BME280;64615;32.062;34.834;2022-11-20T06:00:50;101723.38;;;24.72;29.61
75938;BME280;64615;32.062;34.834;2022-11-20T06:03:16;101725.38;;;24.60;29.96
75938;BME280;64615;32.062;34.834;2022-11-20T06:05:41;101722.22;;;24.68;29.77
75938;BME280;64615;32.062;34.834;2022-11-20T06:08:07;101731.53;;;24.72;29.74
75938;BME280;64615;32.062;34.834;2022-11-20T06:10:58;101727.16;;;24.71;29.98
75938;BME280;64615;32.062;34.834;2022-11-20T06:50:39;101690.47;;;26.58;31.28
75938;BME280;64615;32.062;34.834;2022-11-20T06:53:05;101693.22;;;26.58;31.17
75938;BME280;64615;32.062;34.834;2022-11-20T06:55:31;101695.66;;;26.59;31.73
75938;BME280;64615;32.062;34.834;2022-11-20T06:57:57;101686.38;;;26.60;30.95
75938;BME280;64615;32.062;34.834;2022-11-20T07:00:23;101688.31;;;26.65;31.66
75938;BME280;64615;32.062;34.834;2022-11-20T07:02:48;101686.16;;;26.67;32.25
75938;BME280;64615;32.062;34.834;2022-11-20T07:05:15;101686.44;;;26.65;31.88
75938;BME280;64615;32.062;34.834;2022-11-20T07:07:41;101693.56;;;26.71;31.79
75938;BME280;64615;32.062;34.834;2022-11-20T07:10:07;101680.72;;;26.67;31.98
75938;BME280;64615;32.062;34.834;2022-11-20T07:12:33;101680.69;;;26.62;32.80
75938;BME280;64615;32.062;34.834;2022-11-20T07:14:59;101678.50;;;26.64;32.95
75938;BME280;64615;32.062;34.834;2022-11-20T07:17:24;101682.88;;;26.65;32.97
75938;BME280;64615;32.062;34.834;2022-11-20T07:19:50;101674.19;;;26.73;31.58
75938;BME280;64615;32.062;34.834;2022-11-20T07:22:16;101691.09;;;26.70;32.23
75938;BME280;64615;32.062;34.834;2022-11-20T07:24:41;101676.19;;;26.45;26.28
75938;BME280;64615;32.062;34.834;2022-11-20T07:27:07;101679.31;;;26.27;25.96
75938;BME280;64615;32.062;34.834;2022-11-20T07:29:32;101655.19;;;26.51;25.49
75938;BME280;64615;32.062;34.834;2022-11-20T07:31:58;101673.22;;;26.52;27.92
75938;BME280;64615;32.062;34.834;2022-11-20T07:34:24;101666.09;;;26.46;28.33
75938;BME280;64615;32.062;34.834;2022-11-20T07:36:50;101654.78;;;26.32;29.51
75938;BME280;64615;32.062;34.834;2022-11-20T07:39:15;101667.34;;;26.33;29.23
75938;BME280;64615;32.062;34.834;2022-11-20T07:41:41;101648.84;;;26.40;27.82
75938;BME280;64615;32.062;34.834;2022-11-20T07:44:07;101651.97;;;26.22;29.75
75938;BME280;64615;32.062;34.834;2022-11-20T07:46:32;101647.06;;;26.24;29.11
75938;BME280;64615;32.062;34.834;2022-11-20T07:48:58;101644.63;;;26.28;29.04
75938;BME280;64615;32.062;34.834;2022-11-20T07:51:23;101616.53;;;26.27;27.48
75938;BME280;64615;32.062;34.834;2022-11-20T07:53:54;101629.38;;;26.27;27.46
75938;BME280;64615;32.062;34.834;2022-11-20T07:56:20;101626.00;;;26.20;28.86
75938;BME280;64615;32.062;34.834;2022-11-20T07:58:45;101653.19;;;26.09;28.44
75938;BME280;64615;32.062;34.834;2022-11-20T08:01:11;101643.28;;;25.71;26.36
75938;BME280;64615;32.062;34.834;2022-11-20T08:03:36;101636.00;;;25.55;25.86
75938;BME280;64615;32.062;34.834;2022-11-20T08:06:05;101625.72;;;25.41;26.46
75938;BME280;64615;32.062;34.834;2022-11-20T08:08:31;101613.94;;;25.35;25.83
75938;BME280;64615;32.062;34.834;2022-11-20T08:10:57;101631.81;;;25.26;25.26
75938;BME280;64615;32.062;34.834;2022-11-20T08:13:41;101625.44;;;25.37;25.13
75938;BME280;64615;32.062;34.834;2022-11-20T08:16:26;101620.69;;;25.27;25.43
75938;BME280;64615;32.062;34.834;2022-11-20T08:18:52;101626.75;;;25.13;24.80
75938;BME280;64615;32.062;34.834;2022-11-20T08:21:17;101617.38;;;25.04;24.76
75938;BME280;64615;32.062;34.834;2022-11-20T08:23:43;101627.72;;;25.02;25.47
75938;BME280;64615;32.062;34.834;2022-11-20T09:36:58;101465.63;;;25.04;27.87
75938;BME280;64615;32.062;34.834;2022-11-20T09:39:24;101456.66;;;25.04;27.53
75938;BME280;64615;32.062;34.834;2022-11-20T09:42:11;101464.56;;;25.05;27.52
75938;BME280;64615;32.062;34.834;2022-11-20T09:50:45;101448.94;;;25.22;31.11
75938;BME280;64615;32.062;34.834;2022-11-20T09:55:54;101435.59;;;25.26;30.97
75938;BME280;64615;32.062;34.834;2022-11-20T09:58:29;101445.44;;;25.27;30.73
75938;BME280;64615;32.062;34.834;2022-11-20T11:00:43;101369.16;;;25.32;30.31
75938;BME280;64615;32.062;34.834;2022-11-20T11:03:29;101358.53;;;25.30;30.52
75938;BME280;64615;32.062;34.834;2022-11-20T11:06:34;101335.91;;;25.30;29.34
75938;BME280;64615;32.062;34.834;2022-11-20T11:09:01;101345.44;;;25.27;29.36
75938;BME280;64615;32.062;34.834;2022-11-20T11:30:14;101339.22;;;25.37;29.65
75938;BME280;64615;32.062;34.834;2022-11-20T11:33:10;101322.59;;;25.39;30.42
75938;BME280;64615;32.062;34.834;2022-11-20T11:36:17;101317.72;;;25.41;27.69
75938;BME280;64615;32.062;34.834;2022-11-20T11:39:15;101327.81;;;25.45;27.63
75938;BME280;64615;32.062;34.834;2022-11-20T11:42:13;101333.53;;;25.44;28.22
75938;BME280;64615;32.062;34.834;2022-11-20T11:45:11;101334.63;;;25.43;28.40
75938;BME280;64615;32.062;34.834;2022-11-20T11:48:08;101330.00;;;25.43;28.79
75938;BME280;64615;32.062;34.834;2022-11-20T11:50:34;101333.84;;;25.47;30.20
75938;BME280;64615;32.062;34.834;2022-11-20T12:01:20;101312.53;;;25.44;29.03
75938;BME280;64615;32.062;34.834;2022-11-20T12:03:42;101310.38;;;25.46;29.06
75938;BME280;64615;32.062;34.834;2022-11-20T12:06:16;101307.41;;;25.48;30.21
75938;BME280;64615;32.062;34.834;2022-11-20T12:09:08;101296.75;;;25.46;29.43
75938;BME280;64615;32.062;34.834;2022-11-20T12:11:49;101313.94;;;25.47;29.76
75938;BME280;64615;32.062;34.834;2022-11-20T12:14:17;101312.31;;;25.51;30.47
75938;BME280;64615;32.062;34.834;2022-11-20T12:16:50;101314.22;;;25.50;29.56
75938;BME280;64615;32.062;34.834;2022-11-20T12:19:17;101300.59;;;25.50;31.05
75938;BME280;64615;32.062;34.834;2022-11-20T12:25:14;101280.44;;;25.51;31.13
75938;BME280;64615;32.062;34.834;2022-11-20T12:27:59;101288.59;;;25.51;30.10
75938;BME280;64615;32.062;34.834;2022-11-20T12:30:32;101283.97;;;25.52;30.25
75938;BME280;64615;32.062;34.834;2022-11-20T12:33:51;101279.31;;;25.47;30.12
75938;BME280;64615;32.062;34.834;2022-11-20T12:36:31;101284.22;;;25.50;30.60
75938;BME280;64615;32.062;34.834;2022-11-20T12:45:51;101267.84;;;25.45;28.90
75938;BME280;64615;32.062;34.834;2022-11-20T12:51:16;101268.94;;;25.44;28.74
75938;BME280;64615;32.062;34.834;2022-11-20T13:02:24;101254.19;;;25.40;30.59
75938;BME280;64615;32.062;34.834;2022-11-20T13:07:10;101250.13;;;25.43;29.36
75938;BME280;64615;32.062;34.834;2022-11-20T13:09:43;101259.66;;;25.40;28.76
75938;BME280;64615;32.062;34.834;2022-11-20T13:17:58;101228.59;;;25.41;28.06
75938;BME280;64615;32.062;34.834;2022-11-20T13:20:25;101225.03;;;25.41;28.16
75938;BME280;64615;32.062;34.834;2022-11-20T13:22:55;101222.31;;;25.41;27.76
75938;BME280;64615;32.062;34.834;2022-11-20T13:25:30;101233.22;;;25.41;28.21
75938;BME280;64615;32.062;34.834;2022-11-20T13:28:01;101235.13;;;25.40;28.35
